createdAt,value
2022-08-14T00:01:10.416Z,24.76
2022-08-14T00:03:40.635Z,24.73
2022-08-14T00:06:25.701Z,24.76
2022-08-14T00:08:59.289Z,24.63
2022-08-14T00:11:28.788Z,24.67
2022-08-14T00:13:59.295Z,24.58
2022-08-14T00:16:41.499Z,24.61
2022-08-14T00:19:19.474Z,24.63
2022-08-14T00:21:52.266Z,24.67
2022-08-14T00:24:28.268Z,24.54
2022-08-14T00:27:02.124Z,24.41
2022-08-14T00:29:39.951Z,24.41
2022-08-14T00:32:51.978Z,24.21
2022-08-14T00:34:56.406Z,24.14
2022-08-14T00:37:23.271Z,24.23
2022-08-14T00:39:51.141Z,24.34
2022-08-14T00:42:52.836Z,24.33
2022-08-14T00:45:11.373Z,24.24
2022-08-14T00:47:43.196Z,24.31
2022-08-14T00:50:17.649Z,24.20
2022-08-14T00:52:51.215Z,24.18
2022-08-14T00:55:19.926Z,24.17
2022-08-14T00:58:07.949Z,24.09
2022-08-14T01:00:37.266Z,24.15
2022-08-14T01:03:17.448Z,24.05
2022-08-14T01:05:51.692Z,24.04
2022-08-14T01:08:51.114Z,24.13
2022-08-14T01:11:08.132Z,24.06
2022-08-14T01:13:42.526Z,24.03
2022-08-14T01:16:14.926Z,23.78
2022-08-14T01:19:02.324Z,23.70
2022-08-14T01:21:47.110Z,23.53
2022-08-14T01:24:22.995Z,23.53
2022-08-14T01:27:00.176Z,23.65
2022-08-14T01:29:58.201Z,23.65
2022-08-14T01:32:23.325Z,23.64
2022-08-14T01:35:18.128Z,23.71
2022-08-14T01:37:56.531Z,23.53
2022-08-14T01:40:36.672Z,23.55
2022-08-14T01:43:14.693Z,23.52
2022-08-14T01:45:42.328Z,23.43
2022-08-14T01:48:13.756Z,23.37
2022-08-14T01:50:41.828Z,23.38
2022-08-14T01:53:09.521Z,23.36
2022-08-14T01:55:38.820Z,23.39
2022-08-14T01:58:19.870Z,23.33
2022-08-14T02:00:55.156Z,23.39
2022-08-14T02:03:30.812Z,23.38
2022-08-14T02:05:59.547Z,23.41
2022-08-14T02:08:34.784Z,23.31
2022-08-14T02:11:22.283Z,22.98
2022-08-14T02:14:10.085Z,22.95
2022-08-14T02:16:43.872Z,23.01
2022-08-14T02:19:15.709Z,23.12
2022-08-14T02:21:48.981Z,23.06
2022-08-14T02:24:39.466Z,23.05
2022-08-14T02:28:22.183Z,22.93
2022-08-14T02:29:59.190Z,22.80
2022-08-14T02:32:30.675Z,22.77
2022-08-14T02:35:10.155Z,22.79
2022-08-14T02:37:47.239Z,22.77
2022-08-14T02:40:15.605Z,22.91
2022-08-14T02:42:54.779Z,22.92
2022-08-14T02:45:32.934Z,22.70
2022-08-14T02:48:03.144Z,22.61
2022-08-14T02:50:29.735Z,22.72
2022-08-14T02:53:02.993Z,22.83
2022-08-14T02:55:30.986Z,22.76
2022-08-14T02:58:03.290Z,22.78
2022-08-14T03:00:33.000Z,22.64
2022-08-14T03:03:01.054Z,22.66
2022-08-14T03:05:33.135Z,22.85
2022-08-14T03:08:08.124Z,22.59
2022-08-14T03:10:34.767Z,22.59
2022-08-14T03:13:04.378Z,22.34
2022-08-14T03:15:33.148Z,22.45
2022-08-14T03:18:00.953Z,22.51
2022-08-14T03:20:29.257Z,22.18
2022-08-14T03:22:59.325Z,22.22
2022-08-14T03:25:26.959Z,22.24
2022-08-14T03:27:58.704Z,22.22
2022-08-14T03:30:39.014Z,22.28
2022-08-14T03:33:10.657Z,22.24
2022-08-14T03:35:40.339Z,22.23
2022-08-14T03:39:13.230Z,21.93
2022-08-14T03:41:17.156Z,21.91
2022-08-14T03:43:44.702Z,22.01
2022-08-14T03:46:52.139Z,22.13
2022-08-14T03:49:01.328Z,22.12
2022-08-14T03:51:29.894Z,22.08
2022-08-14T03:53:57.885Z,21.97
2022-08-14T03:56:26.606Z,22.17
2022-08-14T03:58:57.488Z,22.20
2022-08-14T04:01:29.314Z,22.30
2022-08-14T04:04:07.808Z,22.13
2022-08-14T04:06:45.232Z,22.13
2022-08-14T04:09:14.575Z,22.25
2022-08-14T04:11:43.874Z,22.31
2022-08-14T04:14:10.395Z,22.42
2022-08-14T04:16:48.066Z,22.37
2022-08-14T04:19:23.804Z,22.39
2022-08-14T04:22:03.266Z,22.45
2022-08-14T04:24:37.804Z,22.22
2022-08-14T04:27:10.377Z,22.23
2022-08-14T04:29:42.609Z,22.22
2022-08-14T04:33:10.254Z,22.21
2022-08-14T04:34:58.873Z,22.40
2022-08-14T04:37:45.480Z,22.45
2022-08-14T04:40:32.245Z,22.43
2022-08-14T04:43:18.104Z,22.24
2022-08-14T04:45:45.402Z,22.30
2022-08-14T04:48:39.460Z,22.44
2022-08-14T04:51:07.587Z,22.43
2022-08-14T04:53:43.258Z,22.43
2022-08-14T04:56:31.457Z,22.47
2022-08-14T04:59:10.679Z,22.40
2022-08-14T05:01:47.651Z,22.34
2022-08-14T05:04:20.173Z,22.45
2022-08-14T05:06:49.059Z,22.44
2022-08-14T05:09:16.231Z,22.52
2022-08-14T05:11:44.616Z,22.44
2022-08-14T05:14:17.326Z,22.54
2022-08-14T05:17:01.792Z,22.60
2022-08-14T05:22:16.720Z,22.79
2022-08-14T05:24:48.771Z,22.80
2022-08-14T05:27:19.843Z,22.85
2022-08-14T05:29:49.054Z,22.92
2022-08-14T05:32:16.353Z,22.83
2022-08-14T05:34:45.786Z,23.07
2022-08-14T05:37:15.408Z,23.17
2022-08-14T05:39:43.008Z,23.27
2022-08-14T05:42:09.976Z,23.36
2022-08-14T05:44:48.129Z,23.39
2022-08-14T05:47:16.034Z,23.35
2022-08-14T05:49:43.701Z,23.43
2022-08-14T05:52:10.709Z,23.47
2022-08-14T05:54:44.514Z,23.50
2022-08-14T05:57:11.014Z,23.39
2022-08-14T05:59:39.892Z,23.45
2022-08-14T06:02:10.995Z,23.46
2022-08-14T06:04:39.378Z,23.67
2022-08-14T06:07:06.874Z,23.67
2022-08-14T06:09:36.025Z,23.66
2022-08-14T06:12:10.667Z,23.74
2022-08-14T06:14:39.303Z,23.80
2022-08-14T06:17:07.192Z,23.80
2022-08-14T06:19:33.743Z,23.68
2022-08-14T06:22:00.267Z,23.48
2022-08-14T06:24:30.457Z,23.72
2022-08-14T06:27:04.267Z,23.91
2022-08-14T06:29:34.695Z,23.58
2022-08-14T06:32:37.528Z,23.80
2022-08-14T06:35:03.291Z,24.01
2022-08-14T06:37:52.284Z,24.01
2022-08-14T06:40:28.421Z,23.99
2022-08-14T06:43:03.733Z,23.97
2022-08-14T06:45:35.148Z,24.35
2022-08-14T06:48:06.212Z,24.43
2022-08-14T06:50:39.685Z,24.49
2022-08-14T06:53:07.287Z,24.63
2022-08-14T06:55:34.419Z,24.60
2022-08-14T06:58:04.277Z,24.63
2022-08-14T07:00:32.637Z,24.74
2022-08-14T07:03:19.424Z,24.63
2022-08-14T07:05:55.402Z,24.76
2022-08-14T07:08:31.601Z,24.89
2022-08-14T07:11:03.909Z,25.14
2022-08-14T07:13:31.029Z,25.17
2022-08-14T07:15:59.198Z,25.15
2022-08-14T07:18:33.243Z,25.14
2022-08-14T07:21:01.478Z,25.18
2022-08-14T07:23:28.213Z,25.38
2022-08-14T07:26:00.151Z,25.58
2022-08-14T07:28:29.886Z,25.54
2022-08-14T07:31:04.835Z,25.66
2022-08-14T07:33:41.937Z,25.75
2022-08-14T07:36:27.204Z,25.69
2022-08-14T07:39:00.588Z,25.74
2022-08-14T07:41:33.671Z,25.98
2022-08-14T07:44:29.243Z,25.84
2022-08-14T07:46:50.212Z,25.77
2022-08-14T07:49:17.777Z,25.96
2022-08-14T07:51:45.306Z,25.90
2022-08-14T07:54:12.251Z,26.05
2022-08-14T07:56:44.482Z,25.97
2022-08-14T07:59:18.013Z,26.11
2022-08-14T08:01:51.338Z,26.19
2022-08-14T08:04:24.088Z,26.27
2022-08-14T08:06:52.385Z,26.25
2022-08-14T08:09:23.817Z,26.42
2022-08-14T08:11:54.587Z,26.15
2022-08-14T08:14:25.265Z,26.17
2022-08-14T08:16:53.958Z,26.04
2022-08-14T08:19:20.531Z,26.12
2022-08-14T08:21:48.014Z,26.47
2022-08-14T08:24:19.721Z,26.53
2022-08-14T08:26:50.380Z,26.69
2022-08-14T08:29:22.471Z,26.72
2022-08-14T08:31:55.452Z,26.46
2022-08-14T08:34:23.713Z,26.47
2022-08-14T08:36:51.540Z,26.97
2022-08-14T08:39:22.002Z,26.97
2022-08-14T08:41:53.374Z,27.04
2022-08-14T08:44:32.570Z,27.25
2022-08-14T08:47:05.426Z,26.99
2022-08-14T08:49:41.994Z,27.39
2022-08-14T08:52:15.199Z,27.07
2022-08-14T08:54:55.789Z,27.05
2022-08-14T08:57:22.369Z,27.43
2022-08-14T08:59:54.848Z,27.59
2022-08-14T09:02:22.684Z,27.30
2022-08-14T09:05:02.257Z,27.18
2022-08-14T09:07:28.943Z,27.46
2022-08-14T09:10:00.073Z,27.63
2022-08-14T09:12:33.459Z,27.92
2022-08-14T09:15:12.204Z,27.81
2022-08-14T09:17:41.344Z,27.79
2022-08-14T09:20:11.596Z,27.93
2022-08-14T09:22:42.392Z,27.78
2022-08-14T09:25:15.362Z,27.68
2022-08-14T09:27:42.317Z,27.93
2022-08-14T09:30:30.661Z,28.15
2022-08-14T09:33:11.021Z,28.26
2022-08-14T09:35:39.200Z,28.47
2022-08-14T09:38:25.819Z,28.63
2022-08-14T09:42:21.075Z,28.63
2022-08-14T09:44:27.546Z,28.74
2022-08-14T09:46:57.943Z,28.32
2022-08-14T09:49:39.969Z,28.51
2022-08-14T09:52:32.953Z,28.54
2022-08-14T09:54:59.376Z,28.57
2022-08-14T09:57:28.957Z,28.48
2022-08-14T09:59:55.890Z,28.99
2022-08-14T10:02:27.990Z,29.23
2022-08-14T10:05:10.030Z,29.38
2022-08-14T10:07:53.863Z,29.30
2022-08-14T10:10:39.497Z,29.56
2022-08-14T10:13:21.595Z,29.76
2022-08-14T10:15:51.343Z,29.70
2022-08-14T10:18:20.223Z,29.41
2022-08-14T10:20:58.269Z,29.71
2022-08-14T10:23:27.877Z,30.03
2022-08-14T10:26:06.588Z,30.13
2022-08-14T10:29:18.183Z,29.78
2022-08-14T10:31:44.519Z,29.94
2022-08-14T10:34:14.184Z,30.05
2022-08-14T10:36:47.510Z,30.05
2022-08-14T10:39:27.693Z,30.41
2022-08-14T10:42:18.336Z,30.02
2022-08-14T10:44:52.347Z,29.99
2022-08-14T10:47:41.287Z,30.19
2022-08-14T10:50:07.803Z,30.33
2022-08-14T10:52:42.407Z,30.47
2022-08-14T10:55:16.045Z,30.82
2022-08-14T10:57:53.670Z,30.94
2022-08-14T11:00:30.268Z,30.86
2022-08-14T11:03:02.872Z,30.94
2022-08-14T11:05:43.794Z,31.01
2022-08-14T11:08:12.928Z,31.06
2022-08-14T11:10:43.932Z,30.96
2022-08-14T11:13:16.391Z,30.86
2022-08-14T11:15:45.134Z,30.62
2022-08-14T11:18:20.467Z,30.67
2022-08-14T11:20:59.741Z,30.85
2022-08-14T11:23:38.479Z,31.43
2022-08-14T11:26:08.696Z,31.15
2022-08-14T11:28:48.144Z,31.32
2022-08-14T11:31:19.739Z,31.85
2022-08-14T11:33:58.254Z,32.05
2022-08-14T11:36:35.400Z,32.08
2022-08-14T11:39:23.153Z,32.00
2022-08-14T11:42:55.541Z,32.21
2022-08-14T11:44:53.892Z,32.04
2022-08-14T11:47:26.902Z,31.87
2022-08-14T11:50:13.276Z,31.69
2022-08-14T11:52:40.571Z,32.15
2022-08-14T11:55:13.524Z,31.94
2022-08-14T11:57:41.850Z,32.00
2022-08-14T12:00:19.501Z,32.04
2022-08-14T12:03:03.331Z,31.65
2022-08-14T12:05:33.728Z,31.82
2022-08-14T12:08:11.899Z,32.23
2022-08-14T12:10:43.510Z,32.66
2022-08-14T12:13:19.110Z,32.72
2022-08-14T12:15:58.687Z,32.80
2022-08-14T12:18:33.003Z,32.62
2022-08-14T12:21:21.214Z,33.16
2022-08-14T12:24:08.412Z,33.28
2022-08-14T12:26:40.520Z,32.07
2022-08-14T12:29:16.222Z,32.07
2022-08-14T12:31:46.805Z,32.29
2022-08-14T12:34:20.028Z,32.26
2022-08-14T12:36:47.539Z,32.60
2022-08-14T12:39:23.757Z,31.92
2022-08-14T12:41:56.919Z,32.13
2022-08-14T12:44:38.452Z,32.56
2022-08-14T12:47:29.499Z,32.39
2022-08-14T12:49:57.490Z,32.47
2022-08-14T12:52:56.052Z,32.42
2022-08-14T12:56:18.825Z,32.24
2022-08-14T12:58:35.254Z,32.36
2022-08-14T13:01:23.097Z,32.55
2022-08-14T13:03:51.831Z,32.82
2022-08-14T13:06:20.353Z,32.49
2022-08-14T13:08:53.232Z,32.71
2022-08-14T13:11:23.739Z,32.86
2022-08-14T13:13:57.889Z,32.56
2022-08-14T13:16:37.977Z,32.73
2022-08-14T13:19:11.698Z,32.97
2022-08-14T13:22:05.105Z,33.13
2022-08-14T13:24:27.907Z,32.76
2022-08-14T13:26:58.256Z,33.26
2022-08-14T13:29:31.404Z,32.93
2022-08-14T13:31:58.486Z,33.21
2022-08-14T13:34:28.024Z,33.14
2022-08-14T13:36:59.264Z,32.95
2022-08-14T13:39:31.432Z,32.74
2022-08-14T13:42:13.389Z,33.60
2022-08-14T13:44:42.951Z,34.06
2022-08-14T13:47:10.923Z,34.15
2022-08-14T13:49:40.423Z,34.32
2022-08-14T13:52:51.338Z,34.27
2022-08-14T13:55:15.548Z,34.37
2022-08-14T13:57:49.418Z,34.25
2022-08-14T14:00:32.536Z,33.79
2022-08-14T14:03:00.082Z,34.24
2022-08-14T14:05:52.184Z,33.60
2022-08-14T14:08:18.901Z,33.41
2022-08-14T14:11:02.353Z,33.87
2022-08-14T14:13:31.052Z,33.78
2022-08-14T14:16:02.760Z,34.16
2022-08-14T14:18:34.701Z,33.91
2022-08-14T14:21:02.704Z,33.44
2022-08-14T14:23:30.052Z,33.89
2022-08-14T14:25:57.684Z,34.03
2022-08-14T14:28:31.282Z,33.63
2022-08-14T14:31:01.325Z,33.61
2022-08-14T14:33:47.353Z,33.45
2022-08-14T14:36:21.429Z,33.13
2022-08-14T14:38:57.970Z,33.07
2022-08-14T14:41:38.487Z,33.23
2022-08-14T14:44:13.638Z,33.50
2022-08-14T14:46:49.452Z,33.65
2022-08-14T14:49:21.753Z,34.01
2022-08-14T14:51:51.543Z,33.77
2022-08-14T14:54:31.183Z,34.07
2022-08-14T14:57:00.156Z,34.03
2022-08-14T14:59:29.652Z,33.87
2022-08-14T15:02:08.210Z,33.98
2022-08-14T15:04:38.317Z,33.95
2022-08-14T15:07:06.527Z,34.04
2022-08-14T15:09:36.152Z,33.45
2022-08-14T15:12:16.149Z,33.76
2022-08-14T15:14:55.460Z,33.71
2022-08-14T15:17:24.933Z,33.77
2022-08-14T15:19:56.708Z,33.79
2022-08-14T15:22:25.171Z,33.41
2022-08-14T15:24:52.003Z,34.04
2022-08-14T15:27:26.385Z,33.82
2022-08-14T15:29:53.538Z,34.32
2022-08-14T15:32:23.261Z,34.28
2022-08-14T15:34:51.894Z,34.23
2022-08-14T15:37:22.909Z,34.24
2022-08-14T15:39:50.653Z,33.61
2022-08-14T15:42:22.977Z,34.03
2022-08-14T15:44:57.831Z,34.24
2022-08-14T15:47:31.708Z,34.01
2022-08-14T15:50:01.570Z,33.98
2022-08-14T15:52:32.851Z,33.53
2022-08-14T15:55:15.305Z,33.45
2022-08-14T15:58:01.529Z,33.65
2022-08-14T16:00:51.948Z,33.32
2022-08-14T16:03:27.813Z,33.30
2022-08-14T16:06:19.789Z,33.47
2022-08-14T16:08:50.310Z,33.59
2022-08-14T16:11:25.769Z,32.81
2022-08-14T16:13:57.719Z,33.09
2022-08-14T16:16:48.089Z,33.18
2022-08-14T16:19:18.863Z,32.98
2022-08-14T16:24:35.794Z,33.07
2022-08-14T16:27:07.522Z,33.24
2022-08-14T16:29:37.977Z,33.16
2022-08-14T16:32:32.108Z,33.15
2022-08-14T16:34:55.743Z,32.89
2022-08-14T16:37:23.480Z,32.94
2022-08-14T16:39:59.396Z,32.69
2022-08-14T16:40:24.105Z,32.99
2022-08-14T16:42:38.864Z,32.67
2022-08-14T16:45:17.804Z,32.76
2022-08-14T16:47:44.651Z,32.79
2022-08-14T16:50:15.225Z,32.74
2022-08-14T16:53:01.956Z,32.48
2022-08-14T16:55:33.986Z,32.89
2022-08-14T16:58:21.169Z,32.70
2022-08-14T17:00:53.824Z,32.77
2022-08-14T17:03:20.554Z,32.75
2022-08-14T17:05:48.191Z,32.64
2022-08-14T17:08:32.888Z,32.54
2022-08-14T17:11:10.807Z,32.48
2022-08-14T17:13:59.169Z,32.60
2022-08-14T17:16:38.929Z,32.42
2022-08-14T17:19:09.692Z,32.57
2022-08-14T17:21:41.069Z,32.32
2022-08-14T17:24:57.289Z,32.17
2022-08-14T17:27:03.927Z,32.10
2022-08-14T17:29:54.554Z,32.04
2022-08-14T17:35:16.563Z,32.04
2022-08-14T17:37:46.139Z,31.90
2022-08-14T17:40:16.586Z,31.99
2022-08-14T17:42:53.435Z,31.96
2022-08-14T17:45:43.190Z,31.88
2022-08-14T17:49:14.373Z,31.91
2022-08-14T17:51:17.021Z,31.67
2022-08-14T17:54:01.262Z,31.64
2022-08-14T17:56:31.008Z,31.59
2022-08-14T17:59:06.890Z,31.68
2022-08-14T18:01:45.608Z,31.49
2022-08-14T18:04:24.901Z,31.54
2022-08-14T18:07:50.524Z,31.49
2022-08-14T18:09:59.087Z,31.52
2022-08-14T18:12:37.194Z,31.50
2022-08-14T18:15:14.746Z,31.51
2022-08-14T18:17:52.521Z,31.43
2022-08-14T18:21:25.504Z,31.34
2022-08-14T18:23:13.700Z,31.36
2022-08-14T18:25:54.501Z,31.36
2022-08-14T18:28:48.401Z,31.33
2022-08-14T18:31:21.031Z,31.32
2022-08-14T18:33:55.204Z,31.27
2022-08-14T18:36:48.475Z,31.14
2022-08-14T18:40:01.267Z,31.02
2022-08-14T18:42:32.964Z,31.10
2022-08-14T18:45:01.620Z,30.97
2022-08-14T18:48:03.386Z,30.93
2022-08-14T18:50:27.495Z,30.89
2022-08-14T18:53:09.002Z,30.74
2022-08-14T18:55:37.172Z,30.68
2022-08-14T18:58:27.892Z,30.65
2022-08-14T19:01:02.123Z,30.61
2022-08-14T19:03:34.283Z,30.51
2022-08-14T19:06:08.992Z,30.48
2022-08-14T19:08:45.420Z,30.40
2022-08-14T19:11:34.285Z,30.29
2022-08-14T19:14:05.082Z,30.12
2022-08-14T19:16:36.776Z,30.11
2022-08-14T19:19:08.666Z,30.08
2022-08-14T19:21:55.105Z,30.02
2022-08-14T19:24:34.090Z,29.94
2022-08-14T19:27:23.733Z,29.93
2022-08-14T19:30:20.146Z,29.78
2022-08-14T19:32:50.769Z,29.70
2022-08-14T19:35:22.768Z,29.64
2022-08-14T19:37:56.193Z,29.58
2022-08-14T19:40:39.936Z,29.51
2022-08-14T19:43:09.281Z,29.48
2022-08-14T19:45:37.828Z,29.31
2022-08-14T19:48:12.435Z,29.32
2022-08-14T19:50:41.287Z,29.34
2022-08-14T19:53:17.393Z,29.29
2022-08-14T19:55:58.782Z,29.19
2022-08-14T19:58:55.071Z,29.12
2022-08-14T20:01:37.004Z,29.06
2022-08-14T20:04:46.327Z,29.01
2022-08-14T20:06:57.506Z,28.97
2022-08-14T20:11:07.733Z,28.85
2022-08-14T20:12:29.251Z,28.76
2022-08-14T20:15:08.800Z,28.65
2022-08-14T20:17:44.443Z,28.51
2022-08-14T20:20:30.698Z,28.53
2022-08-14T20:23:02.122Z,28.51
2022-08-14T20:25:56.677Z,28.49
2022-08-14T20:28:31.729Z,28.50
2022-08-14T20:31:17.785Z,28.46
2022-08-14T20:34:07.948Z,28.39
2022-08-14T20:36:46.032Z,28.23
2022-08-14T20:39:15.390Z,28.17
2022-08-14T20:41:51.033Z,28.16
2022-08-14T20:44:41.201Z,28.17
2022-08-14T20:47:15.043Z,28.06
2022-08-14T20:49:41.625Z,27.95
2022-08-14T20:52:18.908Z,27.95
2022-08-14T20:54:50.702Z,27.89
2022-08-14T20:57:18.845Z,27.86
2022-08-14T20:59:50.121Z,27.92
2022-08-14T21:02:34.476Z,27.77
2022-08-14T21:05:17.372Z,27.60
2022-08-14T21:07:50.953Z,27.48
2022-08-14T21:10:33.836Z,27.44
2022-08-14T21:14:08.889Z,27.35
2022-08-14T21:15:56.626Z,27.26
2022-08-14T21:18:25.055Z,27.28
2022-08-14T21:20:56.761Z,27.14
2022-08-14T21:23:23.346Z,27.13
2022-08-14T21:25:50.421Z,27.09
2022-08-14T21:28:30.142Z,26.99
2022-08-14T21:30:57.843Z,26.99
2022-08-14T21:33:25.031Z,27.05
2022-08-14T21:35:54.862Z,26.89
2022-08-14T21:38:33.490Z,27.03
2022-08-14T21:41:43.434Z,26.95
2022-08-14T21:44:18.346Z,26.83
2022-08-14T21:46:53.983Z,26.85
2022-08-14T21:49:34.138Z,26.75
2022-08-14T21:52:50.894Z,26.69
2022-08-14T21:55:08.714Z,26.68
2022-08-14T21:58:46.390Z,26.65
2022-08-14T22:00:36.562Z,26.60
2022-08-14T22:03:10.681Z,26.63
2022-08-14T22:05:41.797Z,26.58
2022-08-14T22:08:12.449Z,26.52
2022-08-14T22:10:42.486Z,26.45
2022-08-14T22:13:12.069Z,26.39
2022-08-14T22:15:43.915Z,26.43
2022-08-14T22:18:20.631Z,26.37
2022-08-14T22:20:53.743Z,26.40
2022-08-14T22:23:21.641Z,26.31
2022-08-14T22:25:51.078Z,26.18
2022-08-14T22:28:25.324Z,26.19
2022-08-14T22:30:55.032Z,26.18
2022-08-14T22:33:30.977Z,26.27
2022-08-14T22:35:59.319Z,26.27
2022-08-14T22:38:37.669Z,26.27
2022-08-14T22:41:28.037Z,26.16
2022-08-14T22:43:54.720Z,26.12
2022-08-14T22:46:21.738Z,26.13
2022-08-14T22:48:49.354Z,26.11
2022-08-14T22:51:18.888Z,26.13
2022-08-14T22:53:48.677Z,26.00
2022-08-14T22:56:21.150Z,25.90
2022-08-14T22:58:53.509Z,26.01
2022-08-14T23:01:56.920Z,26.01
2022-08-14T23:04:35.608Z,25.88
2022-08-14T23:07:22.085Z,25.84
2022-08-14T23:09:56.251Z,25.86
2022-08-14T23:12:28.396Z,25.80
2022-08-14T23:14:56.199Z,25.83
2022-08-14T23:17:22.762Z,25.77
2022-08-14T23:19:49.309Z,25.67
2022-08-14T23:22:24.272Z,25.64
2022-08-14T23:24:53.085Z,25.66
2022-08-14T23:27:32.055Z,25.72
2022-08-14T23:30:33.957Z,25.56
2022-08-14T23:33:03.084Z,25.41
2022-08-14T23:35:32.996Z,25.46
2022-08-14T23:38:05.478Z,25.41
2022-08-14T23:40:34.476Z,25.45
2022-08-14T23:43:09.572Z,25.44
2022-08-14T23:45:40.821Z,25.34
2022-08-14T23:48:12.407Z,25.60
2022-08-14T23:50:41.789Z,25.68
2022-08-14T23:53:47.299Z,25.56
2022-08-14T23:56:18.431Z,25.62
2022-08-14T23:58:49.285Z,25.67
